sensor_id;sensor_type;location;lat;lon;timestamp;P1;durP1;ratioP1;P2;durP2;ratioP2
6725;SDS011;3400;48.506;11.692;2023-03-04T00:02:09;38.57;;;25.77;;
6725;SDS011;3400;48.506;11.692;2023-03-04T00:04:37;40.87;;;26.73;;
6725;SDS011;3400;48.506;11.692;2023-03-04T00:07:05;37.00;;;26.47;;
6725;SDS011;3400;48.506;11.692;2023-03-04T00:09:34;40.77;;;26.20;;
6725;SDS011;3400;48.506;11.692;2023-03-04T00:12:02;39.87;;;27.73;;
6725;SDS011;3400;48.506;11.692;2023-03-04T00:14:32;38.63;;;24.10;;
6725;SDS011;3400;48.506;11.692;2023-03-04T00:17:00;36.23;;;24.03;;
6725;SDS011;3400;48.506;11.692;2023-03-04T00:19:29;36.67;;;23.87;;
6725;SDS011;3400;48.506;11.692;2023-03-04T00:21:57;37.10;;;23.53;;
6725;SDS011;3400;48.506;11.692;2023-03-04T00:24:25;33.70;;;23.90;;
6725;SDS011;3400;48.506;11.692;2023-03-04T00:26:54;35.43;;;24.03;;
6725;SDS011;3400;48.506;11.692;2023-03-04T00:29:22;35.83;;;24.77;;
6725;SDS011;3400;48.506;11.692;2023-03-04T00:31:50;35.93;;;23.43;;
6725;SDS011;3400;48.506;11.692;2023-03-04T00:34:18;37.30;;;26.30;;
6725;SDS011;3400;48.506;11.692;2023-03-04T00:36:46;34.13;;;24.20;;
6725;SDS011;3400;48.506;11.692;2023-03-04T00:39:13;37.40;;;24.03;;
6725;SDS011;3400;48.506;11.692;2023-03-04T00:41:41;40.27;;;26.43;;
6725;SDS011;3400;48.506;11.692;2023-03-04T00:44:11;35.03;;;24.77;;
6725;SDS011;3400;48.506;11.692;2023-03-04T00:46:39;34.73;;;23.07;;
6725;SDS011;3400;48.506;11.692;2023-03-04T00:49:06;40.20;;;25.90;;
6725;SDS011;3400;48.506;11.692;2023-03-04T00:51:34;38.23;;;25.30;;
6725;SDS011;3400;48.506;11.692;2023-03-04T00:54:02;37.73;;;26.03;;
6725;SDS011;3400;48.506;11.692;2023-03-04T00:56:30;42.13;;;27.07;;
6725;SDS011;3400;48.506;11.692;2023-03-04T00:58:58;39.63;;;27.37;;
6725;SDS011;3400;48.506;11.692;2023-03-04T01:01:27;39.23;;;27.57;;
6725;SDS011;3400;48.506;11.692;2023-03-04T01:03:55;36.80;;;25.87;;
6725;SDS011;3400;48.506;11.692;2023-03-04T01:06:23;37.50;;;24.43;;
6725;SDS011;3400;48.506;11.692;2023-03-04T01:08:51;38.00;;;25.57;;
6725;SDS011;3400;48.506;11.692;2023-03-04T01:11:19;34.37;;;23.87;;
6725;SDS011;3400;48.506;11.692;2023-03-04T01:13:46;35.33;;;24.00;;
6725;SDS011;3400;48.506;11.692;2023-03-04T01:16:14;37.20;;;24.93;;
6725;SDS011;3400;48.506;11.692;2023-03-04T01:18:43;36.30;;;22.97;;
6725;SDS011;3400;48.506;11.692;2023-03-04T01:21:16;40.97;;;24.37;;
6725;SDS011;3400;48.506;11.692;2023-03-04T01:23:44;37.40;;;24.77;;
6725;SDS011;3400;48.506;11.692;2023-03-04T01:26:12;40.33;;;25.47;;
6725;SDS011;3400;48.506;11.692;2023-03-04T01:28:39;36.57;;;23.70;;
6725;SDS011;3400;48.506;11.692;2023-03-04T01:31:07;36.90;;;22.97;;
6725;SDS011;3400;48.506;11.692;2023-03-04T01:33:35;37.63;;;24.27;;
6725;SDS011;3400;48.506;11.692;2023-03-04T01:36:05;37.83;;;24.13;;
6725;SDS011;3400;48.506;11.692;2023-03-04T01:38:32;40.83;;;25.27;;
6725;SDS011;3400;48.506;11.692;2023-03-04T01:41:00;40.70;;;24.50;;
6725;SDS011;3400;48.506;11.692;2023-03-04T01:43:29;38.83;;;25.67;;
6725;SDS011;3400;48.506;11.692;2023-03-04T01:45:57;36.00;;;24.77;;
6725;SDS011;3400;48.506;11.692;2023-03-04T01:48:25;35.63;;;23.70;;
6725;SDS011;3400;48.506;11.692;2023-03-04T01:50:54;38.37;;;24.17;;
6725;SDS011;3400;48.506;11.692;2023-03-04T01:53:25;38.40;;;23.73;;
6725;SDS011;3400;48.506;11.692;2023-03-04T01:55:55;38.23;;;23.13;;
6725;SDS011;3400;48.506;11.692;2023-03-04T01:58:24;35.63;;;23.97;;
6725;SDS011;3400;48.506;11.692;2023-03-04T02:00:52;37.50;;;23.77;;
6725;SDS011;3400;48.506;11.692;2023-03-04T02:03:20;38.17;;;23.17;;
6725;SDS011;3400;48.506;11.692;2023-03-04T02:05:48;39.20;;;24.63;;
6725;SDS011;3400;48.506;11.692;2023-03-04T02:08:17;37.33;;;24.33;;
6725;SDS011;3400;48.506;11.692;2023-03-04T02:10:47;32.87;;;22.70;;
6725;SDS011;3400;48.506;11.692;2023-03-04T02:13:15;35.60;;;24.43;;
6725;SDS011;3400;48.506;11.692;2023-03-04T02:15:43;34.23;;;23.93;;
6725;SDS011;3400;48.506;11.692;2023-03-04T02:18:13;41.17;;;25.27;;
6725;SDS011;3400;48.506;11.692;2023-03-04T02:20:43;37.60;;;25.50;;
6725;SDS011;3400;48.506;11.692;2023-03-04T02:23:14;37.37;;;24.67;;
6725;SDS011;3400;48.506;11.692;2023-03-04T02:25:44;43.80;;;26.97;;
6725;SDS011;3400;48.506;11.692;2023-03-04T02:28:14;44.90;;;26.20;;
6725;SDS011;3400;48.506;11.692;2023-03-04T02:30:42;39.83;;;26.37;;
6725;SDS011;3400;48.506;11.692;2023-03-04T02:33:13;41.27;;;26.83;;
6725;SDS011;3400;48.506;11.692;2023-03-04T02:35:42;38.93;;;25.67;;
6725;SDS011;3400;48.506;11.692;2023-03-04T02:38:10;37.87;;;26.43;;
6725;SDS011;3400;48.506;11.692;2023-03-04T02:40:38;40.27;;;25.20;;
6725;SDS011;3400;48.506;11.692;2023-03-04T02:43:07;38.27;;;25.87;;
6725;SDS011;3400;48.506;11.692;2023-03-04T02:45:38;38.87;;;24.43;;
6725;SDS011;3400;48.506;11.692;2023-03-04T02:48:07;38.50;;;25.63;;
6725;SDS011;3400;48.506;11.692;2023-03-04T02:50:37;35.50;;;24.43;;
6725;SDS011;3400;48.506;11.692;2023-03-04T02:53:05;32.17;;;23.97;;
6725;SDS011;3400;48.506;11.692;2023-03-04T02:55:33;36.13;;;25.17;;
6725;SDS011;3400;48.506;11.692;2023-03-04T02:58:01;36.63;;;24.40;;
6725;SDS011;3400;48.506;11.692;2023-03-04T03:00:29;40.53;;;27.37;;
6725;SDS011;3400;48.506;11.692;2023-03-04T03:02:59;37.13;;;25.00;;
6725;SDS011;3400;48.506;11.692;2023-03-04T03:05:28;37.47;;;25.00;;
6725;SDS011;3400;48.506;11.692;2023-03-04T03:07:56;36.70;;;23.27;;
6725;SDS011;3400;48.506;11.692;2023-03-04T03:10:24;38.93;;;24.03;;
6725;SDS011;3400;48.506;11.692;2023-03-04T03:12:53;34.30;;;23.70;;
6725;SDS011;3400;48.506;11.692;2023-03-04T03:15:21;42.97;;;25.40;;
6725;SDS011;3400;48.506;11.692;2023-03-04T03:17:49;35.83;;;23.80;;
6725;SDS011;3400;48.506;11.692;2023-03-04T03:20:18;36.27;;;21.73;;
6725;SDS011;3400;48.506;11.692;2023-03-04T03:22:46;37.20;;;23.80;;
6725;SDS011;3400;48.506;11.692;2023-03-04T03:25:14;40.87;;;22.67;;
6725;SDS011;3400;48.506;11.692;2023-03-04T03:27:42;36.70;;;20.43;;
6725;SDS011;3400;48.506;11.692;2023-03-04T03:30:12;31.43;;;20.73;;
6725;SDS011;3400;48.506;11.692;2023-03-04T03:32:40;31.20;;;20.23;;
6725;SDS011;3400;48.506;11.692;2023-03-04T03:35:09;29.97;;;20.30;;
6725;SDS011;3400;48.506;11.692;2023-03-04T03:37:38;32.10;;;20.53;;
6725;SDS011;3400;48.506;11.692;2023-03-04T03:40:06;32.20;;;20.63;;
6725;SDS011;3400;48.506;11.692;2023-03-04T03:42:34;30.80;;;20.73;;
6725;SDS011;3400;48.506;11.692;2023-03-04T03:45:04;31.60;;;20.57;;
6725;SDS011;3400;48.506;11.692;2023-03-04T03:47:32;32.73;;;21.90;;
6725;SDS011;3400;48.506;11.692;2023-03-04T03:50:00;33.33;;;20.43;;
6725;SDS011;3400;48.506;11.692;2023-03-04T03:52:27;33.40;;;19.77;;
6725;SDS011;3400;48.506;11.692;2023-03-04T03:54:57;34.03;;;21.57;;
6725;SDS011;3400;48.506;11.692;2023-03-04T03:57:26;31.90;;;20.73;;
6725;SDS011;3400;48.506;11.692;2023-03-04T03:59:54;32.77;;;22.17;;
6725;SDS011;3400;48.506;11.692;2023-03-04T04:02:22;34.07;;;22.53;;
6725;SDS011;3400;48.506;11.692;2023-03-04T04:04:50;34.53;;;21.43;;
6725;SDS011;3400;48.506;11.692;2023-03-04T04:07:18;33.50;;;21.40;;
6725;SDS011;3400;48.506;11.692;2023-03-04T04:09:45;36.17;;;23.07;;
6725;SDS011;3400;48.506;11.692;2023-03-04T04:12:15;33.83;;;20.30;;
6725;SDS011;3400;48.506;11.692;2023-03-04T04:14:43;31.67;;;20.00;;
6725;SDS011;3400;48.506;11.692;2023-03-04T04:17:12;34.83;;;21.07;;
6725;SDS011;3400;48.506;11.692;2023-03-04T04:19:40;34.83;;;22.37;;
6725;SDS011;3400;48.506;11.692;2023-03-04T04:22:11;34.17;;;21.80;;
6725;SDS011;3400;48.506;11.692;2023-03-04T04:24:40;35.77;;;21.83;;
6725;SDS011;3400;48.506;11.692;2023-03-04T04:27:08;32.43;;;20.90;;
6725;SDS011;3400;48.506;11.692;2023-03-04T04:29:37;32.47;;;21.57;;
6725;SDS011;3400;48.506;11.692;2023-03-04T04:32:05;34.50;;;22.17;;
6725;SDS011;3400;48.506;11.692;2023-03-04T04:34:33;39.90;;;22.03;;
6725;SDS011;3400;48.506;11.692;2023-03-04T04:37:01;37.07;;;21.80;;
6725;SDS011;3400;48.506;11.692;2023-03-04T04:39:29;33.23;;;22.10;;
6725;SDS011;3400;48.506;11.692;2023-03-04T04:41:57;36.83;;;23.20;;
6725;SDS011;3400;48.506;11.692;2023-03-04T04:44:25;33.53;;;23.17;;
6725;SDS011;3400;48.506;11.692;2023-03-04T04:46:54;36.50;;;23.67;;
6725;SDS011;3400;48.506;11.692;2023-03-04T04:49:22;34.77;;;21.57;;
6725;SDS011;3400;48.506;11.692;2023-03-04T04:51:50;39.63;;;24.63;;
6725;SDS011;3400;48.506;11.692;2023-03-04T04:54:17;33.57;;;22.37;;
6725;SDS011;3400;48.506;11.692;2023-03-04T04:56:45;38.13;;;24.00;;
6725;SDS011;3400;48.506;11.692;2023-03-04T04:59:13;38.00;;;24.17;;
6725;SDS011;3400;48.506;11.692;2023-03-04T05:01:41;35.57;;;23.90;;
6725;SDS011;3400;48.506;11.692;2023-03-04T05:04:10;40.17;;;26.80;;
6725;SDS011;3400;48.506;11.692;2023-03-04T05:06:38;38.60;;;23.70;;
6725;SDS011;3400;48.506;11.692;2023-03-04T05:09:06;37.87;;;24.80;;
6725;SDS011;3400;48.506;11.692;2023-03-04T05:11:34;37.87;;;25.13;;
6725;SDS011;3400;48.506;11.692;2023-03-04T05:14:02;38.03;;;24.07;;
6725;SDS011;3400;48.506;11.692;2023-03-04T05:16:30;39.47;;;24.73;;
6725;SDS011;3400;48.506;11.692;2023-03-04T05:18:58;41.97;;;23.10;;
6725;SDS011;3400;48.506;11.692;2023-03-04T05:21:27;36.57;;;23.60;;
6725;SDS011;3400;48.506;11.692;2023-03-04T05:23:55;36.43;;;23.87;;
6725;SDS011;3400;48.506;11.692;2023-03-04T05:26:23;41.20;;;25.10;;
6725;SDS011;3400;48.506;11.692;2023-03-04T05:28:50;39.00;;;25.27;;
6725;SDS011;3400;48.506;11.692;2023-03-04T05:31:18;38.90;;;24.43;;
6725;SDS011;3400;48.506;11.692;2023-03-04T05:33:46;38.53;;;26.03;;
6725;SDS011;3400;48.506;11.692;2023-03-04T05:36:14;40.43;;;26.57;;
6725;SDS011;3400;48.506;11.692;2023-03-04T05:38:43;42.27;;;25.47;;
6725;SDS011;3400;48.506;11.692;2023-03-04T05:41:11;43.13;;;27.10;;
6725;SDS011;3400;48.506;11.692;2023-03-04T05:43:39;40.07;;;25.77;;
6725;SDS011;3400;48.506;11.692;2023-03-04T05:46:08;50.27;;;27.73;;
6725;SDS011;3400;48.506;11.692;2023-03-04T05:48:39;43.37;;;26.23;;
6725;SDS011;3400;48.506;11.692;2023-03-04T05:51:06;41.83;;;26.80;;
6725;SDS011;3400;48.506;11.692;2023-03-04T05:53:34;43.17;;;27.57;;
6725;SDS011;3400;48.506;11.692;2023-03-04T05:56:07;39.33;;;25.30;;
6725;SDS011;3400;48.506;11.692;2023-03-04T05:58:35;42.13;;;27.00;;
6725;SDS011;3400;48.506;11.692;2023-03-04T06:01:03;39.27;;;25.93;;
6725;SDS011;3400;48.506;11.692;2023-03-04T06:03:31;42.10;;;25.60;;
6725;SDS011;3400;48.506;11.692;2023-03-04T06:05:59;45.80;;;28.17;;
6725;SDS011;3400;48.506;11.692;2023-03-04T06:08:27;46.30;;;25.57;;
6725;SDS011;3400;48.506;11.692;2023-03-04T06:10:55;40.53;;;25.13;;
6725;SDS011;3400;48.506;11.692;2023-03-04T06:13:26;40.23;;;25.20;;
6725;SDS011;3400;48.506;11.692;2023-03-04T06:15:54;46.90;;;28.13;;
6725;SDS011;3400;48.506;11.692;2023-03-04T06:18:23;44.00;;;27.23;;
6725;SDS011;3400;48.506;11.692;2023-03-04T06:20:54;54.83;;;31.77;;
6725;SDS011;3400;48.506;11.692;2023-03-04T06:23:22;49.27;;;28.70;;
6725;SDS011;3400;48.506;11.692;2023-03-04T06:25:50;40.40;;;27.57;;
6725;SDS011;3400;48.506;11.692;2023-03-04T06:28:18;44.17;;;26.00;;
6725;SDS011;3400;48.506;11.692;2023-03-04T06:30:47;44.03;;;26.37;;
6725;SDS011;3400;48.506;11.692;2023-03-04T06:33:17;38.17;;;22.23;;
6725;SDS011;3400;48.506;11.692;2023-03-04T06:35:45;40.70;;;25.37;;
6725;SDS011;3400;48.506;11.692;2023-03-04T06:38:13;37.80;;;23.97;;
6725;SDS011;3400;48.506;11.692;2023-03-04T06:40:41;35.17;;;22.93;;
6725;SDS011;3400;48.506;11.692;2023-03-04T06:43:10;41.33;;;23.87;;
6725;SDS011;3400;48.506;11.692;2023-03-04T06:45:38;37.17;;;23.27;;
6725;SDS011;3400;48.506;11.692;2023-03-04T06:48:07;35.37;;;22.63;;
6725;SDS011;3400;48.506;11.692;2023-03-04T06:50:35;33.23;;;21.37;;
6725;SDS011;3400;48.506;11.692;2023-03-04T06:53:03;34.37;;;21.97;;
6725;SDS011;3400;48.506;11.692;2023-03-04T06:55:31;30.33;;;21.20;;
6725;SDS011;3400;48.506;11.692;2023-03-04T06:57:59;34.23;;;21.70;;
6725;SDS011;3400;48.506;11.692;2023-03-04T07:00:27;31.97;;;20.13;;
6725;SDS011;3400;48.506;11.692;2023-03-04T07:02:55;34.40;;;21.23;;
6725;SDS011;3400;48.506;11.692;2023-03-04T07:05:25;32.03;;;20.50;;
6725;SDS011;3400;48.506;11.692;2023-03-04T07:07:53;30.00;;;19.43;;
6725;SDS011;3400;48.506;11.692;2023-03-04T07:10:21;31.13;;;20.60;;
6725;SDS011;3400;48.506;11.692;2023-03-04T07:12:49;32.53;;;21.17;;
6725;SDS011;3400;48.506;11.692;2023-03-04T07:15:17;28.93;;;19.63;;
6725;SDS011;3400;48.506;11.692;2023-03-04T07:17:45;28.90;;;18.50;;
6725;SDS011;3400;48.506;11.692;2023-03-04T07:20:13;24.40;;;17.40;;
6725;SDS011;3400;48.506;11.692;2023-03-04T07:22:42;28.37;;;17.77;;
6725;SDS011;3400;48.506;11.692;2023-03-04T07:25:10;26.70;;;16.87;;
6725;SDS011;3400;48.506;11.692;2023-03-04T07:27:38;25.73;;;16.57;;
6725;SDS011;3400;48.506;11.692;2023-03-04T07:30:06;28.03;;;17.50;;
6725;SDS011;3400;48.506;11.692;2023-03-04T07:32:34;25.30;;;16.73;;
6725;SDS011;3400;48.506;11.692;2023-03-04T07:35:02;28.60;;;17.83;;
6725;SDS011;3400;48.506;11.692;2023-03-04T07:37:30;30.93;;;18.10;;
6725;SDS011;3400;48.506;11.692;2023-03-04T07:39:59;29.07;;;17.50;;
6725;SDS011;3400;48.506;11.692;2023-03-04T07:42:27;24.23;;;16.63;;
6725;SDS011;3400;48.506;11.692;2023-03-04T07:45:03;23.43;;;15.07;;
6725;SDS011;3400;48.506;11.692;2023-03-04T07:47:31;20.20;;;15.20;;
6725;SDS011;3400;48.506;11.692;2023-03-04T07:49:58;26.77;;;16.50;;
6725;SDS011;3400;48.506;11.692;2023-03-04T07:52:26;24.53;;;16.23;;
6725;SDS011;3400;48.506;11.692;2023-03-04T07:54:54;24.53;;;15.80;;
6725;SDS011;3400;48.506;11.692;2023-03-04T07:57:23;23.60;;;15.53;;
6725;SDS011;3400;48.506;11.692;2023-03-04T07:59:51;25.83;;;15.23;;
6725;SDS011;3400;48.506;11.692;2023-03-04T08:02:19;23.90;;;15.50;;
6725;SDS011;3400;48.506;11.692;2023-03-04T08:04:47;22.17;;;15.20;;
6725;SDS011;3400;48.506;11.692;2023-03-04T08:07:15;21.93;;;14.90;;
6725;SDS011;3400;48.506;11.692;2023-03-04T08:09:43;22.53;;;14.10;;
6725;SDS011;3400;48.506;11.692;2023-03-04T08:12:11;19.90;;;13.93;;
6725;SDS011;3400;48.506;11.692;2023-03-04T08:14:40;23.53;;;14.10;;
6725;SDS011;3400;48.506;11.692;2023-03-04T08:17:08;22.77;;;15.33;;
6725;SDS011;3400;48.506;11.692;2023-03-04T08:19:36;19.60;;;13.60;;
6725;SDS011;3400;48.506;11.692;2023-03-04T08:22:04;20.47;;;14.37;;
6725;SDS011;3400;48.506;11.692;2023-03-04T08:24:31;22.87;;;14.50;;
6725;SDS011;3400;48.506;11.692;2023-03-04T08:27:00;17.90;;;14.13;;
6725;SDS011;3400;48.506;11.692;2023-03-04T08:29:28;18.10;;;13.63;;
6725;SDS011;3400;48.506;11.692;2023-03-04T08:31:57;19.47;;;13.67;;
6725;SDS011;3400;48.506;11.692;2023-03-04T08:34:26;19.93;;;13.80;;
6725;SDS011;3400;48.506;11.692;2023-03-04T08:36:54;20.80;;;14.70;;
6725;SDS011;3400;48.506;11.692;2023-03-04T08:39:22;18.13;;;14.03;;
6725;SDS011;3400;48.506;11.692;2023-03-04T08:41:50;20.57;;;14.37;;
6725;SDS011;3400;48.506;11.692;2023-03-04T08:44:18;19.57;;;14.17;;
6725;SDS011;3400;48.506;11.692;2023-03-04T08:46:46;17.90;;;13.90;;
6725;SDS011;3400;48.506;11.692;2023-03-04T08:49:15;17.87;;;13.73;;
6725;SDS011;3400;48.506;11.692;2023-03-04T08:51:43;17.27;;;12.77;;
6725;SDS011;3400;48.506;11.692;2023-03-04T08:54:11;18.87;;;13.27;;
6725;SDS011;3400;48.506;11.692;2023-03-04T08:56:39;15.83;;;12.90;;
6725;SDS011;3400;48.506;11.692;2023-03-04T08:59:07;17.73;;;11.90;;
6725;SDS011;3400;48.506;11.692;2023-03-04T09:01:35;17.20;;;12.37;;
6725;SDS011;3400;48.506;11.692;2023-03-04T09:04:03;15.03;;;7.27;;
6725;SDS011;3400;48.506;11.692;2023-03-04T09:06:32;16.13;;;12.53;;
6725;SDS011;3400;48.506;11.692;2023-03-04T09:09:00;16.93;;;13.50;;
6725;SDS011;3400;48.506;11.692;2023-03-04T09:11:28;16.17;;;13.10;;
6725;SDS011;3400;48.506;11.692;2023-03-04T09:13:56;16.00;;;12.53;;
6725;SDS011;3400;48.506;11.692;2023-03-04T09:16:24;15.17;;;12.53;;
6725;SDS011;3400;48.506;11.692;2023-03-04T09:18:52;14.03;;;12.37;;
6725;SDS011;3400;48.506;11.692;2023-03-04T09:21:19;16.37;;;12.87;;
6725;SDS011;3400;48.506;11.692;2023-03-04T09:23:49;15.57;;;12.60;;
6725;SDS011;3400;48.506;11.692;2023-03-04T09:26:18;16.53;;;13.07;;
6725;SDS011;3400;48.506;11.692;2023-03-04T09:28:57;13.87;;;11.73;;
6725;SDS011;3400;48.506;11.692;2023-03-04T09:31:25;12.20;;;10.87;;
6725;SDS011;3400;48.506;11.692;2023-03-04T09:33:53;15.03;;;12.33;;
6725;SDS011;3400;48.506;11.692;2023-03-04T09:36:22;16.43;;;11.90;;
6725;SDS011;3400;48.506;11.692;2023-03-04T09:38:51;17.20;;;12.37;;
6725;SDS011;3400;48.506;11.692;2023-03-04T09:41:19;13.57;;;11.13;;
6725;SDS011;3400;48.506;11.692;2023-03-04T09:43:48;14.97;;;12.27;;
6725;SDS011;3400;48.506;11.692;2023-03-04T09:46:18;15.03;;;11.30;;
6725;SDS011;3400;48.506;11.692;2023-03-04T09:48:50;15.03;;;11.87;;
6725;SDS011;3400;48.506;11.692;2023-03-04T09:51:19;16.13;;;11.50;;
6725;SDS011;3400;48.506;11.692;2023-03-04T09:53:50;15.27;;;11.73;;
6725;SDS011;3400;48.506;11.692;2023-03-04T09:56:21;15.00;;;12.17;;
6725;SDS011;3400;48.506;11.692;2023-03-04T09:58:51;15.00;;;11.13;;
6725;SDS011;3400;48.506;11.692;2023-03-04T10:01:21;12.67;;;10.87;;
6725;SDS011;3400;48.506;11.692;2023-03-04T10:03:52;12.13;;;10.60;;
6725;SDS011;3400;48.506;11.692;2023-03-04T10:06:21;13.20;;;10.37;;
6725;SDS011;3400;48.506;11.692;2023-03-04T10:08:51;11.00;;;9.80;;
6725;SDS011;3400;48.506;11.692;2023-03-04T10:11:23;11.97;;;10.30;;
6725;SDS011;3400;48.506;11.692;2023-03-04T10:13:54;11.77;;;9.90;;
6725;SDS011;3400;48.506;11.692;2023-03-04T10:16:24;12.90;;;9.73;;
6725;SDS011;3400;48.506;11.692;2023-03-04T10:18:53;11.23;;;9.73;;
6725;SDS011;3400;48.506;11.692;2023-03-04T10:21:25;12.33;;;10.00;;
6725;SDS011;3400;48.506;11.692;2023-03-04T10:23:53;11.90;;;10.67;;
6725;SDS011;3400;48.506;11.692;2023-03-04T10:26:22;12.53;;;10.30;;
6725;SDS011;3400;48.506;11.692;2023-03-04T10:28:55;14.17;;;10.53;;
6725;SDS011;3400;48.506;11.692;2023-03-04T10:31:27;11.43;;;9.57;;
6725;SDS011;3400;48.506;11.692;2023-03-04T10:33:56;11.23;;;9.63;;
6725;SDS011;3400;48.506;11.692;2023-03-04T10:36:36;12.40;;;9.80;;
6725;SDS011;3400;48.506;11.692;2023-03-04T10:39:07;11.87;;;9.90;;
6725;SDS011;3400;48.506;11.692;2023-03-04T10:41:40;12.13;;;9.80;;
6725;SDS011;3400;48.506;11.692;2023-03-04T10:44:12;11.60;;;9.47;;
6725;SDS011;3400;48.506;11.692;2023-03-04T10:46:42;11.97;;;9.43;;
6725;SDS011;3400;48.506;11.692;2023-03-04T10:49:10;12.10;;;9.63;;
6725;SDS011;3400;48.506;11.692;2023-03-04T10:51:43;10.70;;;9.60;;
6725;SDS011;3400;48.506;11.692;2023-03-04T10:54:16;10.83;;;9.00;;
6725;SDS011;3400;48.506;11.692;2023-03-04T10:56:53;13.70;;;10.90;;
6725;SDS011;3400;48.506;11.692;2023-03-04T10:59:29;11.27;;;9.67;;
6725;SDS011;3400;48.506;11.692;2023-03-04T11:01:57;12.23;;;9.93;;
6725;SDS011;3400;48.506;11.692;2023-03-04T11:04:26;16.33;;;9.87;;
6725;SDS011;3400;48.506;11.692;2023-03-04T11:06:54;14.17;;;9.63;;
6725;SDS011;3400;48.506;11.692;2023-03-04T11:09:23;12.73;;;9.53;;
6725;SDS011;3400;48.506;11.692;2023-03-04T11:11:53;11.00;;;8.97;;
6725;SDS011;3400;48.506;11.692;2023-03-04T11:14:22;13.13;;;9.07;;
6725;SDS011;3400;48.506;11.692;2023-03-04T11:16:54;12.83;;;9.10;;
6725;SDS011;3400;48.506;11.692;2023-03-04T11:19:23;12.33;;;9.77;;
6725;SDS011;3400;48.506;11.692;2023-03-04T11:21:52;11.67;;;9.43;;
6725;SDS011;3400;48.506;11.692;2023-03-04T11:24:20;12.27;;;9.73;;
6725;SDS011;3400;48.506;11.692;2023-03-04T11:26:54;14.80;;;10.77;;
6725;SDS011;3400;48.506;11.692;2023-03-04T11:29:23;12.50;;;10.07;;
6725;SDS011;3400;48.506;11.692;2023-03-04T11:31:52;13.17;;;10.20;;
6725;SDS011;3400;48.506;11.692;2023-03-04T11:34:26;12.60;;;10.13;;
6725;SDS011;3400;48.506;11.692;2023-03-04T11:36:56;14.07;;;11.03;;
6725;SDS011;3400;48.506;11.692;2023-03-04T11:39:29;13.67;;;10.50;;
6725;SDS011;3400;48.506;11.692;2023-03-04T11:42:01;15.63;;;11.57;;
6725;SDS011;3400;48.506;11.692;2023-03-04T11:44:29;15.73;;;11.53;;
6725;SDS011;3400;48.506;11.692;2023-03-04T11:47:03;15.87;;;11.83;;
6725;SDS011;3400;48.506;11.692;2023-03-04T11:49:38;14.47;;;11.23;;
6725;SDS011;3400;48.506;11.692;2023-03-04T11:52:13;16.80;;;12.27;;
6725;SDS011;3400;48.506;11.692;2023-03-04T11:54:46;19.10;;;12.13;;
6725;SDS011;3400;48.506;11.692;2023-03-04T11:57:21;16.90;;;12.33;;
6725;SDS011;3400;48.506;11.692;2023-03-04T11:59:54;19.57;;;12.67;;
6725;SDS011;3400;48.506;11.692;2023-03-04T12:02:25;16.83;;;12.50;;
6725;SDS011;3400;48.506;11.692;2023-03-04T12:05:01;20.30;;;13.50;;
6725;SDS011;3400;48.506;11.692;2023-03-04T12:07:37;20.83;;;13.93;;
6725;SDS011;3400;48.506;11.692;2023-03-04T12:10:13;19.23;;;13.50;;
6725;SDS011;3400;48.506;11.692;2023-03-04T12:12:49;18.80;;;12.37;;
6725;SDS011;3400;48.506;11.692;2023-03-04T12:15:22;19.33;;;13.30;;
6725;SDS011;3400;48.506;11.692;2023-03-04T12:20:38;17.53;;;13.53;;
6725;SDS011;3400;48.506;11.692;2023-03-04T12:23:10;16.97;;;12.10;;
6725;SDS011;3400;48.506;11.692;2023-03-04T12:25:46;17.97;;;13.33;;
6725;SDS011;3400;48.506;11.692;2023-03-04T12:28:28;16.93;;;12.13;;
6725;SDS011;3400;48.506;11.692;2023-03-04T12:31:02;16.47;;;12.00;;
6725;SDS011;3400;48.506;11.692;2023-03-04T12:33:32;17.50;;;10.93;;
6725;SDS011;3400;48.506;11.692;2023-03-04T12:36:07;14.97;;;10.27;;
6725;SDS011;3400;48.506;11.692;2023-03-04T12:38:45;16.53;;;10.97;;
6725;SDS011;3400;48.506;11.692;2023-03-04T12:41:20;20.43;;;12.40;;
6725;SDS011;3400;48.506;11.692;2023-03-04T12:43:52;20.43;;;11.93;;
6725;SDS011;3400;48.506;11.692;2023-03-04T12:46:27;17.93;;;12.10;;
6725;SDS011;3400;48.506;11.692;2023-03-04T12:49:01;16.73;;;11.80;;
6725;SDS011;3400;48.506;11.692;2023-03-04T12:51:35;20.23;;;12.53;;
6725;SDS011;3400;48.506;11.692;2023-03-04T12:54:11;16.73;;;11.17;;
6725;SDS011;3400;48.506;11.692;2023-03-04T12:56:42;18.00;;;11.80;;
6725;SDS011;3400;48.506;11.692;2023-03-04T12:59:15;18.90;;;11.40;;
6725;SDS011;3400;48.506;11.692;2023-03-04T13:01:45;19.80;;;12.13;;
6725;SDS011;3400;48.506;11.692;2023-03-04T13:04:17;15.80;;;11.27;;
6725;SDS011;3400;48.506;11.692;2023-03-04T13:06:48;16.10;;;11.73;;
6725;SDS011;3400;48.506;11.692;2023-03-04T13:09:20;16.17;;;10.53;;
6725;SDS011;3400;48.506;11.692;2023-03-04T13:11:52;15.43;;;11.20;;
6725;SDS011;3400;48.506;11.692;2023-03-04T13:14:25;16.93;;;11.23;;
6725;SDS011;3400;48.506;11.692;2023-03-04T13:16:54;17.77;;;12.20;;
6725;SDS011;3400;48.506;11.692;2023-03-04T13:19:41;15.03;;;11.00;;
6725;SDS011;3400;48.506;11.692;2023-03-04T13:27:47;15.13;;;11.03;;
6725;SDS011;3400;48.506;11.692;2023-03-04T13:35:58;15.93;;;11.13;;
6725;SDS011;3400;48.506;11.692;2023-03-04T13:38:31;14.60;;;11.27;;
6725;SDS011;3400;48.506;11.692;2023-03-04T13:41:11;18.70;;;12.10;;
6725;SDS011;3400;48.506;11.692;2023-03-04T13:43:40;18.37;;;11.90;;
6725;SDS011;3400;48.506;11.692;2023-03-04T13:48:58;18.57;;;12.93;;
6725;SDS011;3400;48.506;11.692;2023-03-04T13:51:28;17.37;;;12.50;;
6725;SDS011;3400;48.506;11.692;2023-03-04T13:54:05;18.87;;;12.80;;
6725;SDS011;3400;48.506;11.692;2023-03-04T13:56:33;19.33;;;12.33;;
6725;SDS011;3400;48.506;11.692;2023-03-04T13:59:10;18.67;;;12.40;;
6725;SDS011;3400;48.506;11.692;2023-03-04T14:01:48;19.47;;;12.43;;
6725;SDS011;3400;48.506;11.692;2023-03-04T14:04:18;20.03;;;12.13;;
6725;SDS011;3400;48.506;11.692;2023-03-04T14:06:48;22.10;;;13.53;;
6725;SDS011;3400;48.506;11.692;2023-03-04T14:09:18;17.07;;;11.93;;
6725;SDS011;3400;48.506;11.692;2023-03-04T14:11:46;18.87;;;13.33;;
6725;SDS011;3400;48.506;11.692;2023-03-04T14:14:16;17.97;;;11.93;;
6725;SDS011;3400;48.506;11.692;2023-03-04T14:16:45;19.83;;;13.73;;
6725;SDS011;3400;48.506;11.692;2023-03-04T14:19:15;17.50;;;12.60;;
6725;SDS011;3400;48.506;11.692;2023-03-04T14:21:45;18.27;;;11.80;;
6725;SDS011;3400;48.506;11.692;2023-03-04T14:24:15;21.77;;;13.53;;
6725;SDS011;3400;48.506;11.692;2023-03-04T14:26:44;20.43;;;13.37;;
6725;SDS011;3400;48.506;11.692;2023-03-04T14:29:23;18.60;;;12.40;;
6725;SDS011;3400;48.506;11.692;2023-03-04T14:31:52;21.13;;;12.83;;
6725;SDS011;3400;48.506;11.692;2023-03-04T14:34:23;19.50;;;13.30;;
6725;SDS011;3400;48.506;11.692;2023-03-04T14:36:51;20.03;;;13.17;;
6725;SDS011;3400;48.506;11.692;2023-03-04T14:39:21;21.47;;;13.67;;
6725;SDS011;3400;48.506;11.692;2023-03-04T14:41:50;22.43;;;14.20;;
6725;SDS011;3400;48.506;11.692;2023-03-04T14:44:23;21.37;;;14.17;;
6725;SDS011;3400;48.506;11.692;2023-03-04T14:46:52;22.20;;;13.87;;
6725;SDS011;3400;48.506;11.692;2023-03-04T14:49:22;20.00;;;12.73;;
6725;SDS011;3400;48.506;11.692;2023-03-04T14:51:50;19.17;;;14.50;;
6725;SDS011;3400;48.506;11.692;2023-03-04T14:54:27;22.03;;;14.10;;
6725;SDS011;3400;48.506;11.692;2023-03-04T14:56:55;20.20;;;13.83;;
6725;SDS011;3400;48.506;11.692;2023-03-04T14:59:27;18.67;;;13.63;;
6725;SDS011;3400;48.506;11.692;2023-03-04T15:04:38;19.50;;;15.17;;
6725;SDS011;3400;48.506;11.692;2023-03-04T15:07:11;19.73;;;15.03;;
6725;SDS011;3400;48.506;11.692;2023-03-04T15:09:42;20.00;;;14.83;;